sensor_id;sensor_type;location;lat;lon;timestamp;temperature;humidity
7455;HTU21D;3769;51.208;4.454;2022-12-16T00:01:58;-0.5;100
7455;HTU21D;3769;51.208;4.454;2022-12-16T00:06:58;-0.6;100
7455;HTU21D;3769;51.208;4.454;2022-12-16T00:11:58;-0.5;100
7455;HTU21D;3769;51.208;4.454;2022-12-16T00:16:58;-0.5;100
7455;HTU21D;3769;51.208;4.454;2022-12-16T00:21:58;-0.6;100
7455;HTU21D;3769;51.208;4.454;2022-12-16T00:26:58;-0.7;100
7455;HTU21D;3769;51.208;4.454;2022-12-16T00:31:58;-0.6;100
7455;HTU21D;3769;51.208;4.454;2022-12-16T00:36:58;-0.6;100
7455;HTU21D;3769;51.208;4.454;2022-12-16T00:41:58;-0.7;100
7455;HTU21D;3769;51.208;4.454;2022-12-16T00:46:58;-0.6;100
7455;HTU21D;3769;51.208;4.454;2022-12-16T00:51:58;-0.6;100
7455;HTU21D;3769;51.208;4.454;2022-12-16T00:56:58;-0.7;100
7455;HTU21D;3769;51.208;4.454;2022-12-16T01:01:58;-0.8;100
7455;HTU21D;3769;51.208;4.454;2022-12-16T01:06:58;-1;100
7455;HTU21D;3769;51.208;4.454;2022-12-16T01:11:58;-1;100
7455;HTU21D;3769;51.208;4.454;2022-12-16T01:16:58;-0.9;100
7455;HTU21D;3769;51.208;4.454;2022-12-16T01:21:58;-1.1;100
7455;HTU21D;3769;51.208;4.454;2022-12-16T01:26:58;-0.9;100
7455;HTU21D;3769;51.208;4.454;2022-12-16T01:31:58;-1.2;100
7455;HTU21D;3769;51.208;4.454;2022-12-16T01:36:58;-1.1;100
7455;HTU21D;3769;51.208;4.454;2022-12-16T01:41:58;-1.1;100
7455;HTU21D;3769;51.208;4.454;2022-12-16T01:46:59;-1.1;100
7455;HTU21D;3769;51.208;4.454;2022-12-16T01:51:59;-1;100
7455;HTU21D;3769;51.208;4.454;2022-12-16T01:56:59;-1;100
7455;HTU21D;3769;51.208;4.454;2022-12-16T02:01:58;-0.6;100
7455;HTU21D;3769;51.208;4.454;2022-12-16T02:06:58;-0.7;100
7455;HTU21D;3769;51.208;4.454;2022-12-16T02:13:05;-0.6;100
7455;HTU21D;3769;51.208;4.454;2022-12-16T02:16:59;-0.4;100
7455;HTU21D;3769;51.208;4.454;2022-12-16T02:27:06;-0.3;100
7455;HTU21D;3769;51.208;4.454;2022-12-16T02:32:05;-0.3;100
7455;HTU21D;3769;51.208;4.454;2022-12-16T02:42:01;0;100
7455;HTU21D;3769;51.208;4.454;2022-12-16T02:46:58;-0.2;100
7455;HTU21D;3769;51.208;4.454;2022-12-16T02:51:58;-0.2;100
7455;HTU21D;3769;51.208;4.454;2022-12-16T02:57:03;-0.1;100
7455;HTU21D;3769;51.208;4.454;2022-12-16T03:02:05;0;96.3
7455;HTU21D;3769;51.208;4.454;2022-12-16T03:06:58;0.2;96.3
7455;HTU21D;3769;51.208;4.454;2022-12-16T03:11:58;0.3;96.3
7455;HTU21D;3769;51.208;4.454;2022-12-16T03:16:58;0.6;96.3
7455;HTU21D;3769;51.208;4.454;2022-12-16T03:22:00;0.7;96.3
7455;HTU21D;3769;51.208;4.454;2022-12-16T03:27:05;0.5;96.3
7455;HTU21D;3769;51.208;4.454;2022-12-16T03:31:59;0.6;96.3
7455;HTU21D;3769;51.208;4.454;2022-12-16T03:36:59;0.7;96.3
7455;HTU21D;3769;51.208;4.454;2022-12-16T03:41:58;0.6;96.3
7455;HTU21D;3769;51.208;4.454;2022-12-16T03:46:58;0.9;96.4
7455;HTU21D;3769;51.208;4.454;2022-12-16T03:51:58;0.9;96.4
7455;HTU21D;3769;51.208;4.454;2022-12-16T03:56:58;0.8;96.4
7455;HTU21D;3769;51.208;4.454;2022-12-16T04:01:58;1;96.4
7455;HTU21D;3769;51.208;4.454;2022-12-16T04:06:58;1;96.4
7455;HTU21D;3769;51.208;4.454;2022-12-16T04:11:58;0.9;96.4
7455;HTU21D;3769;51.208;4.454;2022-12-16T04:16:58;0.9;96.4
7455;HTU21D;3769;51.208;4.454;2022-12-16T04:21:58;0.9;96.4
7455;HTU21D;3769;51.208;4.454;2022-12-16T04:26:58;0.9;96.4
7455;HTU21D;3769;51.208;4.454;2022-12-16T04:31:58;1;96.4
7455;HTU21D;3769;51.208;4.454;2022-12-16T04:36:59;0.9;96.4
7455;HTU21D;3769;51.208;4.454;2022-12-16T04:41:58;1;96.4
7455;HTU21D;3769;51.208;4.454;2022-12-16T04:46:58;0.7;96.4
7455;HTU21D;3769;51.208;4.454;2022-12-16T04:51:58;0.9;96.4
7455;HTU21D;3769;51.208;4.454;2022-12-16T04:56:58;1;96.4
7455;HTU21D;3769;51.208;4.454;2022-12-16T05:01:58;1;96.4
7455;HTU21D;3769;51.208;4.454;2022-12-16T05:06:58;1;96.4
7455;HTU21D;3769;51.208;4.454;2022-12-16T05:11:58;1;96.4
7455;HTU21D;3769;51.208;4.454;2022-12-16T05:16:58;0.9;96.4
7455;HTU21D;3769;51.208;4.454;2022-12-16T05:21:58;0.8;96.4
7455;HTU21D;3769;51.208;4.454;2022-12-16T05:26:58;0.8;96.4
7455;HTU21D;3769;51.208;4.454;2022-12-16T05:31:58;0.7;96.4
7455;HTU21D;3769;51.208;4.454;2022-12-16T05:36:58;0.7;96.3
7455;HTU21D;3769;51.208;4.454;2022-12-16T05:41:58;0.7;96.3
7455;HTU21D;3769;51.208;4.454;2022-12-16T05:46:58;0.6;96.3
7455;HTU21D;3769;51.208;4.454;2022-12-16T05:51:58;0.7;96.4
7455;HTU21D;3769;51.208;4.454;2022-12-16T05:56:58;0.5;96.3
7455;HTU21D;3769;51.208;4.454;2022-12-16T06:01:58;0.5;96.3
7455;HTU21D;3769;51.208;4.454;2022-12-16T06:06:58;0.5;96.3
7455;HTU21D;3769;51.208;4.454;2022-12-16T06:11:58;0.5;96.3
7455;HTU21D;3769;51.208;4.454;2022-12-16T06:16:58;0.4;96.3
7455;HTU21D;3769;51.208;4.454;2022-12-16T06:21:58;0.4;96.3
7455;HTU21D;3769;51.208;4.454;2022-12-16T06:26:58;0.4;96.3
7455;HTU21D;3769;51.208;4.454;2022-12-16T06:31:58;0.4;96.3
7455;HTU21D;3769;51.208;4.454;2022-12-16T06:36:58;0.4;96.3
7455;HTU21D;3769;51.208;4.454;2022-12-16T06:41:58;0.3;96.3
7455;HTU21D;3769;51.208;4.454;2022-12-16T06:46:58;0.4;96.3
7455;HTU21D;3769;51.208;4.454;2022-12-16T06:51:58;0.3;96.3
7455;HTU21D;3769;51.208;4.454;2022-12-16T06:56:58;0.4;96.3
7455;HTU21D;3769;51.208;4.454;2022-12-16T07:01:58;0.5;96.3
7455;HTU21D;3769;51.208;4.454;2022-12-16T07:06:58;0.6;96.3
7455;HTU21D;3769;51.208;4.454;2022-12-16T07:11:58;0.5;96.3
7455;HTU21D;3769;51.208;4.454;2022-12-16T07:16:58;0.4;96.3
7455;HTU21D;3769;51.208;4.454;2022-12-16T07:21:58;0.5;96.3
7455;HTU21D;3769;51.208;4.454;2022-12-16T07:26:58;0.3;96.3
7455;HTU21D;3769;51.208;4.454;2022-12-16T07:31:58;0.2;96.3
7455;HTU21D;3769;51.208;4.454;2022-12-16T07:36:58;0.4;96.3
7455;HTU21D;3769;51.208;4.454;2022-12-16T07:41:58;0.3;96.3
7455;HTU21D;3769;51.208;4.454;2022-12-16T07:46:58;0.2;96.3
7455;HTU21D;3769;51.208;4.454;2022-12-16T07:51:58;0.2;96.3
7455;HTU21D;3769;51.208;4.454;2022-12-16T07:56:58;0.2;96.3
7455;HTU21D;3769;51.208;4.454;2022-12-16T08:01:58;0.3;96.3
7455;HTU21D;3769;51.208;4.454;2022-12-16T08:06:58;0.4;96.3
7455;HTU21D;3769;51.208;4.454;2022-12-16T08:11:58;0.3;96.3
7455;HTU21D;3769;51.208;4.454;2022-12-16T08:16:58;0.4;96.3
7455;HTU21D;3769;51.208;4.454;2022-12-16T08:21:58;0.4;96.3
7455;HTU21D;3769;51.208;4.454;2022-12-16T08:26:58;0.3;96.3
7455;HTU21D;3769;51.208;4.454;2022-12-16T08:31:58;0.3;96.3
7455;HTU21D;3769;51.208;4.454;2022-12-16T08:36:58;0.4;96.3
7455;HTU21D;3769;51.208;4.454;2022-12-16T08:41:58;0.5;96.3
7455;HTU21D;3769;51.208;4.454;2022-12-16T08:46:58;0.6;96.3
7455;HTU21D;3769;51.208;4.454;2022-12-16T08:51:58;0.6;96.3
7455;HTU21D;3769;51.208;4.454;2022-12-16T08:56:58;0.6;96.3
7455;HTU21D;3769;51.208;4.454;2022-12-16T09:01:58;0.7;96.4
7455;HTU21D;3769;51.208;4.454;2022-12-16T09:06:58;0.7;96.4
7455;HTU21D;3769;51.208;4.454;2022-12-16T09:11:58;0.8;96.4
7455;HTU21D;3769;51.208;4.454;2022-12-16T09:16:58;0.9;96.4
7455;HTU21D;3769;51.208;4.454;2022-12-16T09:21:58;0.8;96.4
7455;HTU21D;3769;51.208;4.454;2022-12-16T09:26:58;0.9;96.4
7455;HTU21D;3769;51.208;4.454;2022-12-16T09:31:58;0.8;96.4
7455;HTU21D;3769;51.208;4.454;2022-12-16T09:36:58;0.8;96.4
7455;HTU21D;3769;51.208;4.454;2022-12-16T09:42:01;0.9;96.4
7455;HTU21D;3769;51.208;4.454;2022-12-16T09:47:04;1;96.4
7455;HTU21D;3769;51.208;4.454;2022-12-16T09:51:59;1.1;96.4
7455;HTU21D;3769;51.208;4.454;2022-12-16T09:56:58;1.2;96.4
7455;HTU21D;3769;51.208;4.454;2022-12-16T10:01:58;1.2;96.4
7455;HTU21D;3769;51.208;4.454;2022-12-16T10:06:58;1.3;96.4
7455;HTU21D;3769;51.208;4.454;2022-12-16T10:12:18;1.3;96.4
7455;HTU21D;3769;51.208;4.454;2022-12-16T10:17:01;1.3;96.4
7455;HTU21D;3769;51.208;4.454;2022-12-16T10:22:02;1.5;96.5
7455;HTU21D;3769;51.208;4.454;2022-12-16T10:27:14;1.4;96.5
7455;HTU21D;3769;51.208;4.454;2022-12-16T10:31:58;1.5;96.5
7455;HTU21D;3769;51.208;4.454;2022-12-16T10:36:58;1.6;96.5
7455;HTU21D;3769;51.208;4.454;2022-12-16T10:41:58;1.6;96.5
7455;HTU21D;3769;51.208;4.454;2022-12-16T10:46:58;1.8;96.5
7455;HTU21D;3769;51.208;4.454;2022-12-16T10:51:58;1.9;96.5
7455;HTU21D;3769;51.208;4.454;2022-12-16T10:57:01;2;96.5
7455;HTU21D;3769;51.208;4.454;2022-12-16T11:01:59;2.1;96.6
7455;HTU21D;3769;51.208;4.454;2022-12-16T11:06:58;2.1;96.6
7455;HTU21D;3769;51.208;4.454;2022-12-16T11:12:30;2.2;96.6
7455;HTU21D;3769;51.208;4.454;2022-12-16T11:17:09;2.3;96.6
7455;HTU21D;3769;51.208;4.454;2022-12-16T11:22:04;2.1;96.6
7455;HTU21D;3769;51.208;4.454;2022-12-16T11:26:59;2.3;96.6
7455;HTU21D;3769;51.208;4.454;2022-12-16T11:32:01;2.1;96.6
7455;HTU21D;3769;51.208;4.454;2022-12-16T11:36:58;2.3;96.6
7455;HTU21D;3769;51.208;4.454;2022-12-16T11:41:58;2.4;96.6
7455;HTU21D;3769;51.208;4.454;2022-12-16T11:46:58;2.2;96.6
7455;HTU21D;3769;51.208;4.454;2022-12-16T11:51:59;2.3;96.6
7455;HTU21D;3769;51.208;4.454;2022-12-16T11:56:58;2.3;96.6
7455;HTU21D;3769;51.208;4.454;2022-12-16T12:01:58;2.4;96.6
7455;HTU21D;3769;51.208;4.454;2022-12-16T12:07:00;2.5;96.6
7455;HTU21D;3769;51.208;4.454;2022-12-16T12:12:32;2.5;96.6
7455;HTU21D;3769;51.208;4.454;2022-12-16T12:22:00;2.6;96.6
7455;HTU21D;3769;51.208;4.454;2022-12-16T12:27:02;2.7;96.7
7455;HTU21D;3769;51.208;4.454;2022-12-16T12:32:03;2.8;96
7455;HTU21D;3769;51.208;4.454;2022-12-16T12:37:08;2.7;96.7
7455;HTU21D;3769;51.208;4.454;2022-12-16T12:42:09;2.7;96.7
7455;HTU21D;3769;51.208;4.454;2022-12-16T12:46:59;2.7;96.7
7455;HTU21D;3769;51.208;4.454;2022-12-16T12:52:04;2.9;95
7455;HTU21D;3769;51.208;4.454;2022-12-16T12:56:58;2.9;95.8
7455;HTU21D;3769;51.208;4.454;2022-12-16T13:01:58;2.8;94
7455;HTU21D;3769;51.208;4.454;2022-12-16T13:06:58;2.9;92.6
7455;HTU21D;3769;51.208;4.454;2022-12-16T13:16:58;3;90.5
7455;HTU21D;3769;51.208;4.454;2022-12-16T13:21:58;2.9;92.4
7455;HTU21D;3769;51.208;4.454;2022-12-16T13:26:59;2.8;91.8
7455;HTU21D;3769;51.208;4.454;2022-12-16T13:31:59;3;88.9
7455;HTU21D;3769;51.208;4.454;2022-12-16T13:36:58;2.9;88.4
7455;HTU21D;3769;51.208;4.454;2022-12-16T13:41:58;2.9;88.2
7455;HTU21D;3769;51.208;4.454;2022-12-16T13:46:58;2.9;87.3
7455;HTU21D;3769;51.208;4.454;2022-12-16T13:51:59;2.9;86.8
7455;HTU21D;3769;51.208;4.454;2022-12-16T13:56:58;2.8;87.2
7455;HTU21D;3769;51.208;4.454;2022-12-16T14:02:01;2.9;86.9
7455;HTU21D;3769;51.208;4.454;2022-12-16T14:06:58;2.9;84.8
7455;HTU21D;3769;51.208;4.454;2022-12-16T14:12:00;2.8;84.1
7455;HTU21D;3769;51.208;4.454;2022-12-16T14:17:00;2.9;82.4
7455;HTU21D;3769;51.208;4.454;2022-12-16T14:22:03;2.8;82.6
7455;HTU21D;3769;51.208;4.454;2022-12-16T14:27:03;2.8;83.1
7455;HTU21D;3769;51.208;4.454;2022-12-16T14:31:58;2.7;82.2
7455;HTU21D;3769;51.208;4.454;2022-12-16T14:36:58;2.8;81.6
7455;HTU21D;3769;51.208;4.454;2022-12-16T14:41:58;2.8;82.8
7455;HTU21D;3769;51.208;4.454;2022-12-16T14:46:58;2.8;83.4
7455;HTU21D;3769;51.208;4.454;2022-12-16T14:51:58;2.9;82.5
7455;HTU21D;3769;51.208;4.454;2022-12-16T14:56:58;2.8;84.3
7455;HTU21D;3769;51.208;4.454;2022-12-16T15:01:59;2.6;85.1
7455;HTU21D;3769;51.208;4.454;2022-12-16T15:06:58;2.6;87.1
7455;HTU21D;3769;51.208;4.454;2022-12-16T15:11:58;2.5;88.1
7455;HTU21D;3769;51.208;4.454;2022-12-16T15:16:58;2.6;89.9
7455;HTU21D;3769;51.208;4.454;2022-12-16T15:21:59;2.6;89.9
7455;HTU21D;3769;51.208;4.454;2022-12-16T15:27:21;2.3;96.4
7455;HTU21D;3769;51.208;4.454;2022-12-16T15:31:58;2.2;96.6
7455;HTU21D;3769;51.208;4.454;2022-12-16T15:36:58;2.1;96.6
7455;HTU21D;3769;51.208;4.454;2022-12-16T15:41:58;2;96.6
7455;HTU21D;3769;51.208;4.454;2022-12-16T15:46:58;2;96.5
7455;HTU21D;3769;51.208;4.454;2022-12-16T15:51:58;2;96.5
7455;HTU21D;3769;51.208;4.454;2022-12-16T15:56:58;1.9;96.5
7455;HTU21D;3769;51.208;4.454;2022-12-16T16:02:03;1.7;96.5
7455;HTU21D;3769;51.208;4.454;2022-12-16T16:06:58;1.7;96.5
7455;HTU21D;3769;51.208;4.454;2022-12-16T16:11:58;1.6;96.5
7455;HTU21D;3769;51.208;4.454;2022-12-16T16:16:58;1.6;96.5
7455;HTU21D;3769;51.208;4.454;2022-12-16T16:21:58;1.6;96.5
7455;HTU21D;3769;51.208;4.454;2022-12-16T16:26:59;1.5;96.5
7455;HTU21D;3769;51.208;4.454;2022-12-16T16:31:58;1.4;96.5
7455;HTU21D;3769;51.208;4.454;2022-12-16T16:36:58;1.3;96.4
7455;HTU21D;3769;51.208;4.454;2022-12-16T16:41:58;1.2;96.4
7455;HTU21D;3769;51.208;4.454;2022-12-16T16:46:58;1.2;96.4
7455;HTU21D;3769;51.208;4.454;2022-12-16T16:51:58;1.1;96.4
7455;HTU21D;3769;51.208;4.454;2022-12-16T16:56:59;1.2;96.4
7455;HTU21D;3769;51.208;4.454;2022-12-16T17:01:58;1.3;96.5
7455;HTU21D;3769;51.208;4.454;2022-12-16T17:06:58;1.3;96.4
7455;HTU21D;3769;51.208;4.454;2022-12-16T17:11:58;1.2;96.4
7455;HTU21D;3769;51.208;4.454;2022-12-16T17:16:58;1;96.4
7455;HTU21D;3769;51.208;4.454;2022-12-16T17:21:58;0.9;96.4
7455;HTU21D;3769;51.208;4.454;2022-12-16T17:26:58;1;96.4
7455;HTU21D;3769;51.208;4.454;2022-12-16T17:31:58;0.8;96.4
7455;HTU21D;3769;51.208;4.454;2022-12-16T17:36:58;0.7;96.4
7455;HTU21D;3769;51.208;4.454;2022-12-16T17:41:58;0.7;96.4
7455;HTU21D;3769;51.208;4.454;2022-12-16T17:46:58;0.7;96.4
7455;HTU21D;3769;51.208;4.454;2022-12-16T17:51:58;0.7;96.4
7455;HTU21D;3769;51.208;4.454;2022-12-16T17:56:58;0.8;96.4
7455;HTU21D;3769;51.208;4.454;2022-12-16T18:01:58;0.8;96.4
7455;HTU21D;3769;51.208;4.454;2022-12-16T18:06:58;0.7;96.4
7455;HTU21D;3769;51.208;4.454;2022-12-16T18:11:58;0.7;96.4
7455;HTU21D;3769;51.208;4.454;2022-12-16T18:16:58;0.7;96.4
7455;HTU21D;3769;51.208;4.454;2022-12-16T18:21:58;0.6;96.3
7455;HTU21D;3769;51.208;4.454;2022-12-16T18:26:59;0.5;96.3
7455;HTU21D;3769;51.208;4.454;2022-12-16T18:31:58;0.5;96.3
7455;HTU21D;3769;51.208;4.454;2022-12-16T18:36:58;0.5;96.3
7455;HTU21D;3769;51.208;4.454;2022-12-16T18:41:58;0.4;96.3
7455;HTU21D;3769;51.208;4.454;2022-12-16T18:46:58;0.4;96.3
7455;HTU21D;3769;51.208;4.454;2022-12-16T18:51:58;0.4;96.3
7455;HTU21D;3769;51.208;4.454;2022-12-16T18:56:58;0.4;96.3
7455;HTU21D;3769;51.208;4.454;2022-12-16T19:01:58;0.5;96.3
7455;HTU21D;3769;51.208;4.454;2022-12-16T19:06:58;0.6;96.3
7455;HTU21D;3769;51.208;4.454;2022-12-16T19:11:58;0.6;96.3
7455;HTU21D;3769;51.208;4.454;2022-12-16T19:16:58;0.6;96.3
7455;HTU21D;3769;51.208;4.454;2022-12-16T19:21:58;0.5;96.3
7455;HTU21D;3769;51.208;4.454;2022-12-16T19:26:58;0.5;96.3
7455;HTU21D;3769;51.208;4.454;2022-12-16T19:31:58;0.6;96.3
7455;HTU21D;3769;51.208;4.454;2022-12-16T19:36:58;0.6;96.3
7455;HTU21D;3769;51.208;4.454;2022-12-16T19:41:58;0.6;96.3
7455;HTU21D;3769;51.208;4.454;2022-12-16T19:46:58;0.6;96.3
7455;HTU21D;3769;51.208;4.454;2022-12-16T19:51:58;0.6;96.3
7455;HTU21D;3769;51.208;4.454;2022-12-16T19:56:58;0.7;96.4
7455;HTU21D;3769;51.208;4.454;2022-12-16T20:01:58;0.6;96.3
7455;HTU21D;3769;51.208;4.454;2022-12-16T20:06:58;0.5;96.3
7455;HTU21D;3769;51.208;4.454;2022-12-16T20:11:58;0.5;96.3
7455;HTU21D;3769;51.208;4.454;2022-12-16T20:16:58;0.5;96.3
7455;HTU21D;3769;51.208;4.454;2022-12-16T20:21:58;0.5;96.3
7455;HTU21D;3769;51.208;4.454;2022-12-16T20:26:58;0.4;96.3
7455;HTU21D;3769;51.208;4.454;2022-12-16T20:31:58;0.3;96.3
7455;HTU21D;3769;51.208;4.454;2022-12-16T20:36:58;0.1;96.3
7455;HTU21D;3769;51.208;4.454;2022-12-16T20:41:58;0.2;96.3
7455;HTU21D;3769;51.208;4.454;2022-12-16T20:46:58;0.3;96.3
7455;HTU21D;3769;51.208;4.454;2022-12-16T20:51:58;0.3;96.3
7455;HTU21D;3769;51.208;4.454;2022-12-16T20:56:58;0.4;96.3
7455;HTU21D;3769;51.208;4.454;2022-12-16T21:01:58;0.3;96.3
7455;HTU21D;3769;51.208;4.454;2022-12-16T21:06:58;0.2;96.3
7455;HTU21D;3769;51.208;4.454;2022-12-16T21:11:58;0.2;96.3
7455;HTU21D;3769;51.208;4.454;2022-12-16T21:16:58;0.3;96.3
7455;HTU21D;3769;51.208;4.454;2022-12-16T21:21:58;0.3;96.3
7455;HTU21D;3769;51.208;4.454;2022-12-16T21:26:58;0.2;96.3
7455;HTU21D;3769;51.208;4.454;2022-12-16T21:31:58;0.3;96.3
7455;HTU21D;3769;51.208;4.454;2022-12-16T21:36:58;0.1;96.3
7455;HTU21D;3769;51.208;4.454;2022-12-16T21:41:58;-0.1;100
7455;HTU21D;3769;51.208;4.454;2022-12-16T21:46:58;-0.1;100
7455;HTU21D;3769;51.208;4.454;2022-12-16T21:51:58;-0.3;100
7455;HTU21D;3769;51.208;4.454;2022-12-16T21:56:58;-0.2;100
7455;HTU21D;3769;51.208;4.454;2022-12-16T22:01:58;-0.1;100
7455;HTU21D;3769;51.208;4.454;2022-12-16T22:06:58;-0.3;100
7455;HTU21D;3769;51.208;4.454;2022-12-16T22:11:58;-0.3;100
7455;HTU21D;3769;51.208;4.454;2022-12-16T22:16:58;-0.3;100
7455;HTU21D;3769;51.208;4.454;2022-12-16T22:21:58;-0.2;100
7455;HTU21D;3769;51.208;4.454;2022-12-16T22:26:58;-0.4;100
7455;HTU21D;3769;51.208;4.454;2022-12-16T22:31:58;-0.5;100
7455;HTU21D;3769;51.208;4.454;2022-12-16T22:36:58;-0.5;100
7455;HTU21D;3769;51.208;4.454;2022-12-16T22:41:58;-0.5;100
7455;HTU21D;3769;51.208;4.454;2022-12-16T22:46:58;-0.5;100
7455;HTU21D;3769;51.208;4.454;2022-12-16T22:51:58;-0.3;100
7455;HTU21D;3769;51.208;4.454;2022-12-16T22:56:58;-0.4;100
7455;HTU21D;3769;51.208;4.454;2022-12-16T23:01:58;-0.6;100
7455;HTU21D;3769;51.208;4.454;2022-12-16T23:06:58;-0.6;100
7455;HTU21D;3769;51.208;4.454;2022-12-16T23:11:58;-0.7;100
7455;HTU21D;3769;51.208;4.454;2022-12-16T23:16:58;-0.6;100
7455;HTU21D;3769;51.208;4.454;2022-12-16T23:21:58;-0.5;100
7455;HTU21D;3769;51.208;4.454;2022-12-16T23:26:58;-0.7;100
7455;HTU21D;3769;51.208;4.454;2022-12-16T23:31:58;-0.8;100
7455;HTU21D;3769;51.208;4.454;2022-12-16T23:36:58;-0.8;100
7455;HTU21D;3769;51.208;4.454;2022-12-16T23:41:58;-0.8;100
7455;HTU21D;3769;51.208;4.454;2022-12-16T23:46:58;-0.9;100
7455;HTU21D;3769;51.208;4.454;2022-12-16T23:51:58;-0.9;100
7455;HTU21D;3769;51.208;4.454;2022-12-16T23:56:58;-1;100
